createdAt,value
2019-06-26T00:00:03.857Z,12.10
2019-06-26T00:01:03.917Z,11.90
2019-06-26T00:02:03.947Z,11.90
2019-06-26T00:03:04.001Z,12.70
2019-06-26T00:04:04.086Z,11.90
2019-06-26T00:05:04.096Z,13.40
2019-06-26T00:06:04.135Z,16.60
2019-06-26T00:07:04.208Z,13.40
2019-06-26T00:08:04.286Z,12.90
2019-06-26T00:09:04.291Z,13.20
2019-06-26T00:10:04.332Z,12.80
2019-06-26T00:11:04.359Z,12.40
2019-06-26T00:12:04.419Z,12.50
2019-06-26T00:13:04.444Z,12.60
2019-06-26T00:14:04.478Z,13.10
2019-06-26T00:15:04.590Z,12.50
2019-06-26T00:16:04.572Z,12.90
2019-06-26T00:17:04.635Z,13.30
2019-06-26T00:18:04.648Z,13.20
2019-06-26T00:19:04.719Z,13.30
2019-06-26T00:20:04.759Z,13.20
2019-06-26T00:21:04.804Z,13.30
2019-06-26T00:22:04.859Z,13.80
2019-06-26T00:23:04.888Z,13.20
2019-06-26T00:24:04.968Z,14.10
2019-06-26T00:25:04.990Z,14.40
2019-06-26T00:26:05.065Z,13.70
2019-06-26T00:27:05.099Z,13.60
2019-06-26T00:28:05.113Z,13.90
2019-06-26T00:29:05.209Z,14.20
2019-06-26T00:30:05.223Z,14.30
2019-06-26T00:31:05.300Z,14.00
2019-06-26T00:32:05.296Z,14.40
2019-06-26T00:33:05.335Z,14.50
2019-06-26T00:34:05.454Z,15.10
2019-06-26T00:35:05.423Z,15.00
2019-06-26T00:36:05.475Z,15.00
2019-06-26T00:37:05.537Z,14.90
2019-06-26T00:38:05.573Z,14.40
2019-06-26T00:39:05.614Z,14.50
2019-06-26T00:40:05.689Z,14.80
2019-06-26T00:41:05.700Z,14.60
2019-06-26T00:42:05.758Z,15.10
2019-06-26T00:43:05.810Z,15.00
2019-06-26T00:44:05.845Z,15.10
2019-06-26T00:45:05.880Z,14.60
2019-06-26T00:46:05.936Z,14.50
2019-06-26T00:47:05.989Z,14.80
2019-06-26T00:48:06.031Z,14.80
2019-06-26T00:49:06.066Z,16.90
2019-06-26T00:50:06.108Z,16.40
2019-06-26T00:51:06.178Z,16.10
2019-06-26T00:52:06.188Z,15.80
2019-06-26T00:53:06.248Z,15.80
2019-06-26T00:54:06.284Z,15.00
2019-06-26T00:55:06.334Z,15.80
2019-06-26T00:56:06.390Z,15.10
2019-06-26T00:57:06.430Z,15.80
2019-06-26T00:58:06.469Z,15.80
2019-06-26T00:59:06.524Z,15.30
2019-06-26T01:00:06.577Z,15.50
2019-06-26T01:01:06.599Z,15.60
2019-06-26T01:02:06.638Z,15.80
2019-06-26T01:03:06.713Z,16.10
2019-06-26T01:04:06.742Z,15.40
2019-06-26T01:05:06.794Z,15.50
2019-06-26T01:06:06.873Z,14.50
2019-06-26T01:07:06.946Z,15.40
2019-06-26T01:08:06.997Z,15.70
2019-06-26T01:09:06.975Z,16.40
2019-06-26T01:10:07.049Z,15.30
2019-06-26T01:11:07.110Z,16.20
2019-06-26T01:12:07.097Z,15.40
2019-06-26T01:13:07.183Z,16.20
2019-06-26T01:14:07.278Z,16.10
2019-06-26T01:15:07.242Z,15.10
2019-06-26T01:16:07.259Z,15.20
2019-06-26T01:17:07.616Z,15.40
2019-06-26T01:18:07.370Z,16.00
2019-06-26T01:19:07.450Z,15.90
2019-06-26T01:20:07.465Z,16.10
2019-06-26T01:21:07.567Z,16.10
2019-06-26T01:22:07.583Z,16.80
2019-06-26T01:23:07.597Z,17.10
2019-06-26T01:24:07.650Z,17.10
2019-06-26T01:25:07.739Z,17.40
2019-06-26T01:26:07.724Z,17.70
2019-06-26T01:27:07.867Z,17.20
2019-06-26T01:28:07.848Z,17.10
2019-06-26T01:29:07.868Z,16.40
2019-06-26T01:30:07.989Z,16.60
2019-06-26T01:31:08.016Z,17.30
2019-06-26T01:32:08.055Z,17.00
2019-06-26T01:33:08.090Z,16.80
2019-06-26T01:34:08.140Z,16.90
2019-06-26T01:35:08.185Z,17.10
2019-06-26T01:36:08.208Z,17.00
2019-06-26T01:37:08.253Z,16.60
2019-06-26T01:38:08.370Z,16.20
2019-06-26T01:39:08.368Z,16.30
2019-06-26T01:40:08.400Z,15.90
2019-06-26T01:41:08.463Z,16.30
2019-06-26T01:42:08.437Z,16.10
2019-06-26T01:43:08.483Z,16.40
2019-06-26T01:44:14.982Z,15.80
2019-06-26T01:45:08.558Z,16.30
2019-06-26T01:46:08.623Z,16.40
2019-06-26T01:47:08.671Z,16.50
2019-06-26T01:48:08.711Z,16.00
2019-06-26T01:49:08.745Z,16.10
2019-06-26T01:50:08.830Z,16.00
2019-06-26T01:51:08.820Z,15.80
2019-06-26T01:52:08.879Z,15.10
2019-06-26T01:53:08.933Z,15.60
2019-06-26T01:54:08.992Z,15.00
2019-06-26T01:55:09.012Z,15.10
2019-06-26T01:56:09.083Z,15.00
2019-06-26T01:57:09.110Z,14.60
2019-06-26T01:58:09.143Z,15.20
2019-06-26T01:59:09.174Z,14.90
2019-06-26T02:00:09.240Z,14.50
2019-06-26T02:01:09.284Z,14.90
2019-06-26T02:02:09.375Z,15.20
2019-06-26T02:03:09.376Z,14.70
2019-06-26T02:04:09.410Z,14.90
2019-06-26T02:05:09.454Z,15.20
2019-06-26T02:06:09.499Z,15.30
2019-06-26T02:07:09.546Z,15.80
2019-06-26T02:08:09.589Z,15.80
2019-06-26T02:09:09.648Z,16.00
2019-06-26T02:10:09.662Z,16.30
2019-06-26T02:11:09.698Z,15.80
2019-06-26T02:12:09.767Z,15.30
2019-06-26T02:13:09.796Z,15.60
2019-06-26T02:14:09.861Z,16.50
2019-06-26T02:15:09.887Z,15.40
2019-06-26T02:16:09.938Z,15.90
2019-06-26T02:17:09.988Z,16.30
2019-06-26T02:18:10.025Z,15.90
2019-06-26T02:19:10.063Z,15.70
2019-06-26T02:20:10.118Z,15.90
2019-06-26T02:21:10.145Z,16.80
2019-06-26T02:22:10.209Z,16.00
2019-06-26T02:23:10.239Z,16.10
2019-06-26T02:24:10.297Z,16.40
2019-06-26T02:25:10.345Z,15.40
2019-06-26T02:26:10.385Z,16.60
2019-06-26T02:27:10.414Z,16.00
2019-06-26T02:28:10.481Z,16.40
2019-06-26T02:29:10.530Z,16.00
2019-06-26T02:30:10.567Z,15.60
2019-06-26T02:31:10.622Z,15.90
2019-06-26T02:32:10.655Z,15.70
2019-06-26T02:33:10.698Z,16.50
2019-06-26T02:34:10.751Z,16.10
2019-06-26T02:35:10.960Z,15.70
2019-06-26T02:36:10.829Z,16.80
2019-06-26T02:37:10.868Z,16.80
2019-06-26T02:38:10.904Z,16.70
2019-06-26T02:39:10.984Z,16.40
2019-06-26T02:40:11.065Z,16.20
2019-06-26T02:41:11.060Z,16.70
2019-06-26T02:42:11.115Z,16.60
2019-06-26T02:43:11.144Z,16.50
2019-06-26T02:44:11.161Z,16.30
2019-06-26T02:45:11.225Z,17.50
2019-06-26T02:46:11.270Z,17.20
2019-06-26T02:47:19.602Z,17.00
2019-06-26T02:48:11.340Z,17.20
2019-06-26T02:49:11.403Z,17.20
2019-06-26T02:50:11.457Z,16.90
2019-06-26T02:51:11.506Z,16.60
2019-06-26T02:52:11.528Z,16.30
2019-06-26T02:53:11.570Z,16.60
2019-06-26T02:54:11.610Z,16.90
2019-06-26T02:55:11.662Z,16.60
2019-06-26T02:56:11.708Z,16.30
2019-06-26T02:57:11.776Z,15.70
2019-06-26T02:58:11.777Z,16.20
2019-06-26T02:59:11.841Z,16.50
2019-06-26T03:00:11.865Z,16.30
2019-06-26T03:01:11.926Z,16.10
2019-06-26T03:02:11.981Z,15.30
2019-06-26T03:03:11.987Z,15.00
2019-06-26T03:04:12.052Z,15.10
2019-06-26T03:05:12.088Z,15.90
2019-06-26T03:06:12.141Z,15.50
2019-06-26T03:07:12.207Z,14.70
2019-06-26T03:08:12.230Z,15.70
2019-06-26T03:09:12.279Z,14.60
2019-06-26T03:10:12.309Z,15.00
2019-06-26T03:11:12.362Z,15.40
2019-06-26T03:12:12.402Z,15.20
2019-06-26T03:13:12.492Z,14.90
2019-06-26T03:14:12.493Z,15.10
2019-06-26T03:15:12.534Z,14.40
2019-06-26T03:16:12.567Z,14.00
2019-06-26T03:17:12.632Z,14.00
2019-06-26T03:18:12.653Z,14.30
2019-06-26T03:19:12.697Z,13.80
2019-06-26T03:20:12.763Z,14.20
2019-06-26T03:21:12.792Z,14.80
2019-06-26T03:22:12.842Z,13.70
2019-06-26T03:23:12.888Z,14.30
2019-06-26T03:24:12.922Z,14.10
2019-06-26T03:25:12.966Z,14.30
2019-06-26T03:26:13.001Z,14.50
2019-06-26T03:27:13.037Z,14.20
2019-06-26T03:28:13.104Z,14.80
2019-06-26T03:29:13.129Z,14.90
2019-06-26T03:30:13.242Z,14.30
2019-06-26T03:31:13.231Z,14.20
2019-06-26T03:32:13.330Z,14.20
2019-06-26T03:33:13.328Z,14.00
2019-06-26T03:34:13.363Z,14.10
2019-06-26T03:35:13.411Z,14.30
2019-06-26T03:36:13.452Z,14.30
2019-06-26T03:37:13.492Z,14.80
2019-06-26T03:38:13.520Z,14.40
2019-06-26T03:39:13.589Z,13.80
2019-06-26T03:40:13.647Z,13.20
2019-06-26T03:41:13.672Z,13.70
2019-06-26T03:42:13.706Z,14.10
2019-06-26T03:43:13.762Z,15.00
2019-06-26T03:44:13.807Z,15.70
2019-06-26T03:45:25.279Z,15.80
2019-06-26T03:46:13.895Z,16.30
2019-06-26T03:47:13.931Z,17.20
2019-06-26T03:48:13.997Z,17.70
2019-06-26T03:49:14.035Z,18.70
2019-06-26T03:50:14.055Z,17.60
2019-06-26T03:51:14.331Z,17.10
2019-06-26T03:52:14.146Z,17.20
2019-06-26T03:53:14.193Z,16.90
2019-06-26T03:54:14.247Z,16.80
2019-06-26T03:55:14.292Z,16.30
2019-06-26T03:56:14.333Z,16.90
2019-06-26T03:57:14.424Z,16.60
2019-06-26T03:58:14.470Z,16.80
2019-06-26T03:59:14.451Z,16.00
2019-06-26T04:00:14.520Z,16.20
2019-06-26T04:01:14.569Z,15.80
2019-06-26T04:02:14.597Z,15.30
2019-06-26T04:03:14.667Z,15.50
2019-06-26T04:04:14.691Z,15.70
2019-06-26T04:05:14.710Z,15.70
2019-06-26T04:06:14.754Z,15.40
2019-06-26T04:07:14.809Z,15.20
2019-06-26T04:08:14.911Z,15.00
2019-06-26T04:09:14.906Z,15.20
2019-06-26T04:10:14.959Z,14.80
2019-06-26T04:11:15.014Z,15.30
2019-06-26T04:12:15.048Z,15.50
2019-06-26T04:13:15.111Z,15.20
2019-06-26T04:14:15.114Z,15.50
2019-06-26T04:15:15.204Z,14.80
2019-06-26T04:16:15.218Z,15.20
2019-06-26T04:17:15.270Z,15.10
2019-06-26T04:18:15.300Z,15.60
2019-06-26T04:19:15.348Z,15.20
2019-06-26T04:20:15.398Z,15.40
2019-06-26T04:21:15.445Z,15.20
2019-06-26T04:22:15.487Z,15.10
2019-06-26T04:23:15.531Z,15.70
2019-06-26T04:24:15.564Z,15.00
2019-06-26T04:25:15.617Z,14.90
2019-06-26T04:26:15.644Z,14.80
2019-06-26T04:27:15.730Z,14.90
2019-06-26T04:28:15.738Z,15.00
2019-06-26T04:29:15.800Z,14.90
2019-06-26T04:30:15.836Z,15.70
2019-06-26T04:31:15.875Z,15.80
2019-06-26T04:32:15.922Z,16.30
2019-06-26T04:33:15.967Z,16.20
2019-06-26T04:34:15.990Z,16.30
2019-06-26T04:35:16.065Z,16.20
2019-06-26T04:36:16.113Z,17.40
2019-06-26T04:37:16.139Z,16.70
2019-06-26T04:38:16.184Z,17.60
2019-06-26T04:39:16.221Z,18.30
2019-06-26T04:40:16.279Z,18.40
2019-06-26T04:41:16.305Z,17.60
2019-06-26T04:42:16.359Z,17.70
2019-06-26T04:43:16.401Z,18.00
2019-06-26T04:44:16.429Z,17.70
2019-06-26T04:45:16.486Z,16.90
2019-06-26T04:46:16.574Z,17.30
2019-06-26T04:47:16.562Z,17.10
2019-06-26T04:48:16.610Z,17.50
2019-06-26T04:49:16.671Z,17.40
2019-06-26T04:50:16.696Z,17.10
2019-06-26T04:51:16.717Z,17.50
2019-06-26T04:52:16.776Z,18.60
2019-06-26T04:53:16.829Z,19.20
2019-06-26T04:54:16.912Z,18.70
2019-06-26T04:55:16.910Z,18.40
2019-06-26T04:56:16.957Z,18.70
2019-06-26T04:57:17.016Z,18.80
2019-06-26T04:58:17.108Z,18.60
2019-06-26T04:59:17.082Z,18.40
2019-06-26T05:00:17.124Z,18.60
2019-06-26T05:01:17.187Z,18.60
2019-06-26T05:02:17.205Z,18.20
2019-06-26T05:03:17.274Z,19.10
2019-06-26T05:04:17.311Z,18.70
2019-06-26T05:05:17.356Z,18.80
2019-06-26T05:06:17.381Z,19.40
2019-06-26T05:07:17.483Z,19.00
2019-06-26T05:08:17.489Z,20.10
2019-06-26T05:09:17.629Z,19.20
2019-06-26T05:10:17.590Z,18.70
2019-06-26T05:11:17.620Z,19.40
2019-06-26T05:12:17.655Z,19.00
2019-06-26T05:13:17.697Z,19.30
2019-06-26T05:14:17.744Z,19.10
2019-06-26T05:15:17.793Z,19.90
2019-06-26T05:16:20.409Z,19.40
2019-06-26T05:17:17.882Z,19.50
2019-06-26T05:18:17.999Z,19.30
2019-06-26T05:19:17.961Z,19.50
2019-06-26T05:20:18.009Z,19.70
2019-06-26T05:21:18.085Z,19.20
2019-06-26T05:22:18.088Z,19.50
2019-06-26T05:23:18.181Z,19.00
2019-06-26T05:24:18.163Z,19.00
2019-06-26T05:25:18.229Z,19.20
2019-06-26T05:26:18.279Z,19.40
2019-06-26T05:27:18.299Z,19.80
2019-06-26T05:28:18.368Z,19.80
2019-06-26T05:29:18.387Z,19.10
2019-06-26T05:30:18.448Z,19.10
2019-06-26T05:31:18.487Z,19.30
2019-06-26T05:32:18.494Z,19.10
2019-06-26T05:33:18.554Z,19.50
2019-06-26T05:34:18.603Z,19.00
2019-06-26T05:35:18.658Z,19.30
2019-06-26T05:36:18.714Z,19.60
2019-06-26T05:37:18.721Z,19.50
2019-06-26T05:38:18.779Z,19.40
2019-06-26T05:39:18.831Z,19.90
2019-06-26T05:40:18.868Z,20.00
2019-06-26T05:41:18.914Z,20.00
2019-06-26T05:42:18.954Z,20.20
2019-06-26T05:43:18.998Z,20.20
2019-06-26T05:44:19.038Z,20.00
2019-06-26T05:45:19.078Z,19.80
2019-06-26T05:46:30.448Z,20.20
2019-06-26T05:47:22.043Z,19.60
2019-06-26T05:48:19.203Z,19.80
2019-06-26T05:49:19.255Z,19.60
2019-06-26T05:50:19.290Z,19.50
2019-06-26T05:51:19.334Z,20.00
2019-06-26T05:52:19.371Z,19.60
2019-06-26T05:53:19.429Z,18.90
2019-06-26T05:54:19.492Z,20.10
2019-06-26T05:55:19.539Z,19.90
2019-06-26T05:56:19.551Z,20.00
2019-06-26T05:57:19.608Z,20.00
2019-06-26T05:58:19.654Z,20.70
2019-06-26T05:59:19.682Z,19.70
2019-06-26T06:00:19.750Z,19.70
2019-06-26T06:01:19.780Z,20.00
2019-06-26T06:02:19.822Z,20.70
2019-06-26T06:03:19.870Z,20.10
2019-06-26T06:04:19.904Z,20.10
2019-06-26T06:05:20.007Z,20.20
2019-06-26T06:06:19.979Z,19.60
2019-06-26T06:07:20.033Z,19.80
2019-06-26T06:08:20.079Z,19.40
2019-06-26T06:09:20.126Z,20.30
2019-06-26T06:10:20.166Z,19.70
2019-06-26T06:11:20.248Z,19.90
2019-06-26T06:12:20.244Z,19.80
2019-06-26T06:13:20.329Z,20.00
2019-06-26T06:14:20.333Z,18.60
2019-06-26T06:15:20.386Z,19.40
2019-06-26T06:16:20.413Z,18.80
2019-06-26T06:17:20.463Z,18.10
2019-06-26T06:18:20.513Z,17.10
2019-06-26T06:19:20.549Z,17.80
2019-06-26T06:20:20.584Z,17.50
2019-06-26T06:21:20.626Z,17.50
2019-06-26T06:22:20.666Z,16.70
2019-06-26T06:23:20.721Z,16.00
2019-06-26T06:24:20.741Z,16.50
2019-06-26T06:25:20.823Z,16.20
2019-06-26T06:26:20.855Z,15.80
2019-06-26T06:27:20.893Z,15.90
2019-06-26T06:28:21.037Z,15.60
2019-06-26T06:29:20.979Z,15.10
2019-06-26T06:30:21.011Z,15.50
2019-06-26T06:31:21.085Z,14.50
2019-06-26T06:32:21.113Z,14.10
2019-06-26T06:33:21.140Z,13.80
2019-06-26T06:34:21.195Z,14.50
2019-06-26T06:35:21.213Z,12.60
2019-06-26T06:36:21.272Z,13.20
2019-06-26T06:37:21.319Z,13.00
2019-06-26T06:38:21.356Z,12.30
2019-06-26T06:39:21.392Z,12.90
2019-06-26T06:40:21.423Z,12.60
2019-06-26T06:41:21.486Z,11.80
2019-06-26T06:42:21.547Z,11.60
2019-06-26T06:43:21.576Z,12.20
2019-06-26T06:44:21.627Z,11.10
2019-06-26T06:45:21.650Z,10.80
2019-06-26T06:46:21.696Z,11.00
2019-06-26T06:47:21.737Z,10.50
2019-06-26T06:48:21.797Z,10.40
2019-06-26T06:49:21.816Z,10.50
2019-06-26T06:50:21.963Z,9.90
2019-06-26T06:51:21.921Z,9.50
2019-06-26T06:52:21.944Z,9.20
2019-06-26T06:53:21.999Z,9.60
2019-06-26T06:54:22.033Z,9.10
2019-06-26T06:55:22.073Z,8.90
2019-06-26T06:56:22.116Z,8.60
2019-06-26T06:57:22.211Z,8.60
2019-06-26T06:58:22.211Z,8.50
2019-06-26T06:59:22.285Z,8.30
2019-06-26T07:00:22.295Z,8.30
2019-06-26T07:01:22.412Z,7.80
2019-06-26T07:02:22.377Z,7.70
2019-06-26T07:03:22.417Z,7.70
2019-06-26T07:04:22.478Z,7.30
2019-06-26T07:05:22.556Z,7.40
2019-06-26T07:06:22.554Z,7.50
2019-06-26T07:07:22.599Z,7.40
2019-06-26T07:08:22.611Z,7.10
2019-06-26T07:09:22.701Z,7.20
2019-06-26T07:10:22.721Z,6.30
2019-06-26T07:11:22.750Z,6.80
2019-06-26T07:12:22.803Z,6.80
2019-06-26T07:13:22.842Z,6.60
2019-06-26T07:14:22.889Z,6.70
2019-06-26T07:15:22.940Z,6.70
2019-06-26T07:16:22.942Z,6.50
2019-06-26T07:17:23.020Z,6.50
2019-06-26T07:18:23.070Z,6.20
2019-06-26T07:19:23.090Z,6.40
2019-06-26T07:20:23.138Z,6.10
2019-06-26T07:21:23.228Z,6.80
2019-06-26T07:22:23.230Z,5.90
2019-06-26T07:23:23.263Z,6.00
2019-06-26T07:24:23.319Z,6.00
2019-06-26T07:25:23.368Z,6.30
2019-06-26T07:26:23.412Z,6.50
2019-06-26T07:27:23.482Z,6.00
2019-06-26T07:28:23.495Z,6.00
2019-06-26T07:29:23.530Z,5.70
2019-06-26T07:30:23.584Z,6.20
2019-06-26T07:31:23.600Z,6.20
2019-06-26T07:32:23.658Z,5.80
2019-06-26T07:33:23.693Z,5.80
2019-06-26T07:34:23.714Z,5.90
2019-06-26T07:35:23.772Z,6.00
2019-06-26T07:36:23.817Z,5.70
2019-06-26T07:37:23.860Z,5.60
2019-06-26T07:38:23.899Z,5.70
2019-06-26T07:39:23.934Z,6.00
2019-06-26T07:40:23.996Z,5.70
2019-06-26T07:41:24.045Z,5.50
2019-06-26T07:42:24.071Z,5.40
2019-06-26T07:43:24.108Z,5.70
2019-06-26T07:44:24.163Z,5.70
2019-06-26T07:45:24.385Z,5.50
2019-06-26T07:46:24.248Z,5.00
2019-06-26T07:47:41.524Z,5.60
2019-06-26T07:48:24.327Z,5.40
2019-06-26T07:49:24.407Z,5.50
2019-06-26T07:50:24.416Z,5.70
2019-06-26T07:51:24.476Z,5.50
2019-06-26T07:52:24.529Z,5.30
2019-06-26T07:53:24.546Z,5.30
2019-06-26T07:54:24.590Z,5.60
2019-06-26T07:55:24.623Z,5.40
2019-06-26T07:56:24.812Z,5.40
2019-06-26T07:57:24.724Z,5.20
2019-06-26T07:58:24.758Z,5.30
2019-06-26T07:59:24.812Z,5.40
2019-06-26T08:00:24.856Z,5.80
2019-06-26T08:01:24.893Z,5.70
2019-06-26T08:02:24.932Z,6.00
2019-06-26T08:03:24.998Z,6.10
2019-06-26T08:04:25.173Z,5.20
2019-06-26T08:05:25.044Z,5.40
2019-06-26T08:06:25.131Z,5.10
2019-06-26T08:07:25.147Z,5.40
2019-06-26T08:08:25.198Z,5.30
2019-06-26T08:09:25.220Z,4.90
2019-06-26T08:10:25.283Z,5.00
2019-06-26T08:11:25.291Z,5.00
2019-06-26T08:12:25.375Z,5.40
2019-06-26T08:13:25.411Z,5.20
2019-06-26T08:14:25.433Z,5.20
2019-06-26T08:15:25.597Z,5.20
2019-06-26T08:16:25.541Z,4.80
2019-06-26T08:17:25.563Z,5.20
2019-06-26T08:18:25.769Z,5.20
2019-06-26T08:19:25.637Z,5.10
2019-06-26T08:20:25.699Z,5.40
2019-06-26T08:21:25.717Z,5.60
2019-06-26T08:22:25.791Z,5.40
2019-06-26T08:23:25.821Z,5.40
2019-06-26T08:24:25.879Z,5.50
2019-06-26T08:25:25.924Z,5.50
2019-06-26T08:26:25.975Z,5.70
2019-06-26T08:27:26.003Z,5.70
2019-06-26T08:28:26.045Z,6.20
2019-06-26T08:29:26.096Z,6.40
2019-06-26T08:30:26.122Z,5.90
2019-06-26T08:31:26.162Z,5.90
2019-06-26T08:32:26.248Z,6.10
2019-06-26T08:33:26.251Z,6.00
2019-06-26T08:34:26.290Z,6.00
2019-06-26T08:35:26.355Z,6.30
2019-06-26T08:36:26.385Z,6.10
2019-06-26T08:37:26.437Z,5.50
2019-06-26T08:38:26.487Z,6.00
2019-06-26T08:39:26.523Z,5.70
2019-06-26T08:40:26.563Z,6.10
2019-06-26T08:41:26.603Z,5.90
2019-06-26T08:42:26.625Z,5.50
2019-06-26T08:43:26.680Z,5.60
2019-06-26T08:44:26.715Z,5.80
2019-06-26T08:45:26.802Z,6.10
2019-06-26T08:46:26.815Z,5.90
2019-06-26T08:47:26.861Z,5.80
2019-06-26T08:48:38.808Z,5.40
2019-06-26T08:49:26.938Z,5.80
2019-06-26T08:50:26.992Z,5.60
2019-06-26T08:51:27.033Z,5.50
2019-06-26T08:52:27.119Z,5.80
2019-06-26T08:53:27.118Z,5.40
2019-06-26T08:54:27.186Z,5.60
2019-06-26T08:55:27.213Z,5.80
2019-06-26T08:56:27.247Z,5.90
2019-06-26T08:57:27.296Z,5.90
2019-06-26T08:58:27.340Z,5.60
2019-06-26T08:59:27.376Z,6.10
2019-06-26T09:00:27.403Z,6.60
2019-06-26T09:01:27.450Z,6.30
2019-06-26T09:02:27.549Z,6.20
2019-06-26T09:03:27.543Z,6.70
2019-06-26T09:04:27.592Z,6.50
2019-06-26T09:05:27.613Z,6.30
2019-06-26T09:06:27.666Z,6.20
2019-06-26T09:07:27.748Z,6.20
2019-06-26T09:08:27.935Z,6.50
2019-06-26T09:09:27.804Z,6.30
2019-06-26T09:10:27.852Z,6.00
2019-06-26T09:11:27.880Z,6.70
2019-06-26T09:12:27.973Z,6.40
2019-06-26T09:13:27.957Z,6.20
2019-06-26T09:14:28.003Z,6.00
2019-06-26T09:15:28.079Z,5.80
2019-06-26T09:16:28.091Z,6.20
2019-06-26T09:17:28.157Z,6.00
2019-06-26T09:18:35.473Z,6.40
2019-06-26T09:19:28.239Z,6.10
2019-06-26T09:20:28.278Z,6.70
2019-06-26T09:21:31.048Z,6.70
2019-06-26T09:22:28.363Z,7.10
2019-06-26T09:23:31.016Z,6.60
2019-06-26T09:24:28.450Z,7.20
2019-06-26T09:25:28.485Z,6.30
2019-06-26T09:26:28.515Z,7.20
2019-06-26T09:27:28.572Z,8.30
2019-06-26T09:28:28.611Z,8.00
2019-06-26T09:29:28.667Z,7.30
2019-06-26T09:30:28.700Z,7.50
2019-06-26T09:31:28.754Z,7.40
2019-06-26T09:32:28.801Z,7.40
2019-06-26T09:33:32.238Z,7.40
2019-06-26T09:34:28.870Z,6.60
2019-06-26T09:35:28.956Z,5.90
2019-06-26T09:36:28.956Z,6.60
2019-06-26T09:37:29.008Z,6.30
2019-06-26T09:38:29.048Z,6.60
2019-06-26T09:39:29.113Z,5.90
2019-06-26T09:40:31.820Z,7.30
2019-06-26T09:41:29.162Z,9.20
2019-06-26T09:42:29.196Z,7.60
2019-06-26T09:43:29.295Z,6.90
2019-06-26T09:44:29.302Z,7.20
2019-06-26T09:45:29.327Z,5.90
2019-06-26T09:46:29.371Z,5.30
2019-06-26T09:47:31.028Z,5.60
2019-06-26T09:48:29.475Z,5.40
2019-06-26T09:49:29.511Z,5.40
2019-06-26T09:50:29.556Z,5.10
2019-06-26T09:51:29.595Z,5.30
2019-06-26T09:52:29.660Z,5.00
2019-06-26T09:53:42.599Z,5.30
2019-06-26T09:54:29.743Z,5.00
2019-06-26T09:55:29.791Z,5.30
2019-06-26T09:56:29.836Z,5.30
2019-06-26T09:57:29.891Z,5.50
2019-06-26T09:58:29.901Z,5.10
2019-06-26T09:59:29.926Z,5.30
2019-06-26T10:00:29.977Z,5.10
2019-06-26T10:01:30.017Z,5.80
2019-06-26T10:02:30.066Z,5.40
2019-06-26T10:03:30.100Z,5.30
2019-06-26T10:04:30.147Z,5.40
2019-06-26T10:05:30.219Z,5.20
2019-06-26T10:06:30.235Z,5.30
2019-06-26T10:07:30.291Z,5.00
2019-06-26T10:08:30.364Z,5.30
2019-06-26T10:09:30.355Z,5.80
2019-06-26T10:10:30.427Z,5.20
2019-06-26T10:11:30.454Z,5.50
2019-06-26T10:12:30.491Z,5.60
2019-06-26T10:13:30.544Z,5.60
2019-06-26T10:14:46.670Z,5.70
2019-06-26T10:15:30.659Z,5.40
2019-06-26T10:16:30.706Z,5.60
2019-06-26T10:17:30.730Z,5.70
2019-06-26T10:18:30.751Z,5.40
2019-06-26T10:19:30.807Z,5.50
2019-06-26T10:20:30.836Z,5.60
2019-06-26T10:21:30.884Z,7.10
2019-06-26T10:22:30.926Z,8.00
2019-06-26T10:23:30.999Z,8.50
2019-06-26T10:24:30.996Z,9.00
2019-06-26T10:25:31.114Z,9.40
2019-06-26T10:26:32.616Z,8.50
2019-06-26T10:27:31.147Z,8.50
2019-06-26T10:28:31.192Z,9.20
2019-06-26T10:29:31.223Z,9.70
2019-06-26T10:30:31.274Z,9.60
2019-06-26T10:31:31.343Z,9.40
2019-06-26T10:32:31.356Z,10.10
2019-06-26T10:33:31.406Z,9.80
2019-06-26T10:34:31.446Z,10.40
2019-06-26T10:35:31.485Z,10.10
2019-06-26T10:36:31.553Z,10.00
2019-06-26T10:37:31.616Z,10.50
2019-06-26T10:38:31.625Z,10.50
2019-06-26T10:39:31.660Z,9.50
2019-06-26T10:40:31.735Z,9.50
2019-06-26T10:41:31.762Z,9.70
2019-06-26T10:42:31.790Z,9.30
2019-06-26T10:43:31.839Z,10.20
2019-06-26T10:44:31.877Z,10.30
2019-06-26T10:45:33.854Z,9.50
2019-06-26T10:46:32.015Z,10.00
2019-06-26T10:47:32.007Z,9.90
2019-06-26T10:48:32.061Z,10.00
2019-06-26T10:49:32.100Z,9.90
2019-06-26T10:50:32.163Z,9.40
2019-06-26T10:51:32.186Z,8.40
2019-06-26T10:52:32.228Z,8.30
2019-06-26T10:53:32.266Z,8.90
2019-06-26T10:54:32.325Z,9.10
2019-06-26T10:55:32.351Z,9.70
2019-06-26T10:56:32.485Z,9.10
2019-06-26T10:57:32.445Z,8.90
2019-06-26T10:58:32.519Z,8.60
2019-06-26T10:59:32.544Z,8.50
2019-06-26T11:00:32.600Z,9.40
2019-06-26T11:01:32.656Z,9.00
2019-06-26T11:02:32.651Z,8.90
2019-06-26T11:03:32.722Z,8.70
2019-06-26T11:04:32.735Z,9.00
2019-06-26T11:05:32.790Z,8.70
2019-06-26T11:06:36.757Z,8.50
2019-06-26T11:07:36.327Z,7.30
2019-06-26T11:08:32.922Z,6.60
2019-06-26T11:09:32.963Z,6.20
2019-06-26T11:10:33.013Z,6.00
2019-06-26T11:11:33.079Z,6.10
2019-06-26T11:12:33.108Z,6.00
2019-06-26T11:13:33.161Z,5.60
2019-06-26T11:14:33.193Z,6.40
2019-06-26T11:15:33.345Z,5.80
2019-06-26T11:16:33.287Z,6.30
2019-06-26T11:17:33.374Z,6.20
2019-06-26T11:18:33.396Z,6.10
2019-06-26T11:19:43.342Z,6.20
2019-06-26T11:20:33.479Z,6.30
2019-06-26T11:21:33.547Z,7.00
2019-06-26T11:22:33.594Z,6.80
2019-06-26T11:23:33.650Z,6.70
2019-06-26T11:24:33.695Z,6.50
2019-06-26T11:25:33.720Z,7.20
2019-06-26T11:26:33.823Z,6.80
2019-06-26T11:27:33.856Z,6.70
2019-06-26T11:28:33.986Z,6.30
2019-06-26T11:29:33.930Z,7.30
2019-06-26T11:30:34.001Z,6.60
2019-06-26T11:31:34.093Z,6.10
2019-06-26T11:32:34.085Z,6.00
2019-06-26T11:33:34.173Z,6.00
2019-06-26T11:34:34.193Z,6.70
2019-06-26T11:35:34.233Z,6.20
2019-06-26T11:36:34.301Z,6.50
2019-06-26T11:37:34.351Z,6.40
2019-06-26T11:38:34.384Z,6.10
2019-06-26T11:39:34.448Z,5.60
2019-06-26T11:40:34.498Z,5.60
2019-06-26T11:41:34.560Z,5.10
2019-06-26T11:42:34.605Z,5.70
2019-06-26T11:43:34.671Z,6.10
2019-06-26T11:44:34.732Z,6.20
2019-06-26T11:45:34.744Z,5.80
2019-06-26T11:46:36.914Z,5.70
2019-06-26T11:47:34.866Z,6.10
2019-06-26T11:48:34.910Z,5.30
2019-06-26T11:49:34.958Z,5.10
2019-06-26T11:50:35.008Z,5.00
2019-06-26T11:51:35.055Z,5.40
2019-06-26T11:52:35.123Z,5.60
2019-06-26T11:53:35.163Z,5.60
2019-06-26T11:54:35.209Z,5.60
2019-06-26T11:55:35.279Z,5.10
2019-06-26T11:56:35.321Z,5.00
2019-06-26T11:57:35.395Z,5.20
2019-06-26T11:58:35.413Z,4.90
2019-06-26T11:59:35.483Z,5.00
2019-06-26T12:00:35.536Z,6.80
2019-06-26T12:01:35.603Z,4.50
2019-06-26T12:02:35.629Z,4.30
2019-06-26T12:03:35.681Z,12.20
2019-06-26T12:04:35.740Z,4.60
2019-06-26T12:05:35.809Z,7.40
2019-06-26T12:06:35.843Z,5.40
2019-06-26T12:07:35.891Z,3.90
2019-06-26T12:08:35.941Z,4.40
2019-06-26T12:09:36.008Z,4.70
2019-06-26T12:10:36.077Z,4.20
2019-06-26T12:11:36.246Z,4.90
2019-06-26T12:12:36.167Z,4.60
2019-06-26T12:13:36.280Z,4.30
2019-06-26T12:14:36.261Z,4.30
2019-06-26T12:15:36.326Z,4.00
2019-06-26T12:16:36.372Z,6.20
2019-06-26T12:17:36.472Z,5.80
2019-06-26T12:18:36.487Z,4.50
2019-06-26T12:19:36.545Z,10.40
2019-06-26T12:20:36.595Z,4.50
2019-06-26T12:21:36.641Z,4.30
2019-06-26T12:22:36.673Z,7.70
2019-06-26T12:23:36.754Z,7.40
2019-06-26T12:24:36.833Z,3.90
2019-06-26T12:25:36.882Z,4.10
2019-06-26T12:26:36.918Z,4.30
2019-06-26T12:27:36.963Z,4.00
2019-06-26T12:28:37.005Z,3.60
2019-06-26T12:29:37.058Z,3.60
2019-06-26T12:30:37.147Z,3.80
2019-06-26T12:31:37.172Z,3.70
2019-06-26T12:32:42.444Z,3.50
2019-06-26T12:33:37.299Z,3.90
2019-06-26T12:34:37.341Z,3.80
2019-06-26T12:35:37.398Z,3.50
2019-06-26T12:36:37.447Z,3.80
2019-06-26T12:37:38.405Z,3.70
2019-06-26T12:38:37.587Z,3.70
2019-06-26T12:39:37.607Z,3.40
2019-06-26T12:40:37.655Z,3.50
2019-06-26T12:41:37.709Z,3.50
2019-06-26T12:42:37.757Z,3.60
2019-06-26T12:43:37.825Z,3.60
2019-06-26T12:44:37.865Z,3.70
2019-06-26T12:45:37.933Z,3.60
2019-06-26T12:46:37.968Z,3.50
2019-06-26T12:47:38.024Z,3.60
2019-06-26T12:48:38.089Z,3.90
2019-06-26T12:49:38.134Z,4.00
2019-06-26T12:50:38.177Z,3.60
2019-06-26T12:51:38.244Z,3.70
2019-06-26T12:52:38.320Z,3.70
2019-06-26T12:53:38.349Z,3.80
2019-06-26T12:54:38.442Z,3.70
2019-06-26T12:55:38.470Z,3.60
2019-06-26T12:56:38.515Z,3.70
2019-06-26T12:57:38.602Z,3.90
2019-06-26T12:58:38.636Z,3.80
2019-06-26T12:59:38.711Z,3.80
2019-06-26T13:00:38.738Z,3.70
2019-06-26T13:01:38.804Z,4.00
2019-06-26T13:02:38.850Z,4.00
2019-06-26T13:03:38.932Z,4.20
2019-06-26T13:04:38.986Z,3.80